Time;durP1;ratioP1;P1;durP2;ratioP2;P2;SDS_P1;SDS_P2;PMS_P1;PMS_P2;Temp;Humidity;BMP_temperature;BMP_pressure;BME280_temperature;BME280_humidity;BME280_pressure;Samples;Min_cycle;Max_cycle;Signal;HPM_P1;HPM_P2
2022/04/08 00:00:49;;;;;;;1.53;1.40;;;;;;;14.21;54.88;93253.91;5063832;28;20179;-74
2022/04/08 00:03:15;;;;;;;2.87;1.67;;;;;;;13.67;57.00;93257.34;5046211;28;20194;-74
2022/04/08 00:05:40;;;;;;;1.27;1.20;;;;;;;13.67;56.40;93248.69;5046456;28;20590;-74
2022/04/08 00:08:06;;;;;;;1.73;1.63;;;;;;;13.85;56.21;93258.84;5046146;28;20206;-74
2022/04/08 00:10:32;;;;;;;1.80;1.67;;;;;;;13.92;55.55;93276.25;5078043;28;20210;-74
2022/04/08 00:12:57;;;;;;;1.37;1.37;;;;;;;13.66;56.28;93258.41;5046002;28;20414;-74
2022/04/08 00:15:23;;;;;;;1.50;1.40;;;;;;;13.66;55.78;93268.13;5055998;28;20178;-74
2022/04/08 00:17:48;;;;;;;1.80;1.40;;;;;;;13.44;56.38;93240.03;5065905;28;20234;-74
2022/04/08 00:20:14;;;;;;;1.57;1.47;;;;;;;13.76;55.62;93257.72;5064308;28;20246;-74
2022/04/08 00:22:40;;;;;;;3.10;2.00;;;;;;;13.98;54.76;93270.81;5065753;28;20723;-74
2022/04/08 00:25:07;;;;;;;2.80;1.50;;;;;;;13.81;56.57;93270.91;5064579;28;20186;-74
2022/04/08 00:27:33;;;;;;;2.53;2.43;;;;;;;13.67;55.98;93274.97;5065429;28;20464;-74
2022/04/08 00:29:58;;;;;;;1.53;1.40;;;;;;;13.67;56.08;93269.72;5063421;28;20443;-74
2022/04/08 00:32:26;;;;;;;2.10;1.43;;;;;;;13.69;55.93;93275.50;5045707;28;20179;-74
2022/04/08 00:34:52;;;;;;;1.70;1.60;;;;;;;13.55;55.67;93282.22;5045791;28;20674;-74
2022/04/08 00:37:17;;;;;;;1.50;1.40;;;;;;;13.53;56.42;93286.91;5045559;28;20488;-74
2022/04/08 00:39:43;;;;;;;1.93;1.30;;;;;;;13.51;57.17;93287.16;5047746;28;20180;-74
2022/04/08 00:42:08;;;;;;;2.50;1.50;;;;;;;13.87;54.88;93290.16;5065527;28;20197;-74
2022/04/08 00:44:34;;;;;;;2.07;1.97;;;;;;;13.75;54.85;93287.66;5065597;28;20179;-74
2022/04/08 00:46:59;;;;;;;1.70;1.60;;;;;;;13.63;55.67;93281.75;5065824;28;20204;-74
2022/04/08 00:49:25;;;;;;;1.70;1.60;;;;;;;13.77;55.38;93282.97;5065788;28;20182;-74
2022/04/08 00:51:51;;;;;;;1.70;1.60;;;;;;;13.60;55.28;93274.38;5065658;28;20202;-74
2022/04/08 00:54:17;;;;;;;3.93;3.23;;;;;;;13.28;56.42;93288.97;5059708;28;20214;-74
2022/04/08 00:56:43;;;;;;;2.07;1.87;;;;;;;13.34;55.49;93284.59;5045533;28;20414;-74
2022/04/08 00:59:09;;;;;;;1.47;1.30;;;;;;;13.46;54.39;93287.09;5045182;28;20424;-74
2022/04/08 01:01:35;;;;;;;2.03;1.93;;;;;;;13.94;52.77;93288.09;5060383;28;20487;-74
2022/04/08 01:04:00;;;;;;;3.90;1.60;;;;;;;13.50;54.67;93290.81;5065462;28;20182;-75
2022/04/08 01:06:27;;;;;;;2.13;1.97;;;;;;;13.50;53.97;93290.81;5065075;28;20175;-74
2022/04/08 01:08:53;;;;;;;2.93;1.67;;;;;;;13.96;52.13;93283.41;5065046;28;20224;-74
2022/04/08 01:11:19;;;;;;;1.40;1.40;;;;;;;13.74;53.20;93285.31;5064983;28;20468;-75
2022/04/08 01:13:45;;;;;;;1.67;1.57;;;;;;;13.43;53.95;93306.78;5065032;28;20412;-74
2022/04/08 01:16:12;;;;;;;1.67;1.50;;;;;;;13.29;53.94;93301.06;5081764;28;20196;-74
2022/04/08 01:18:37;;;;;;;1.50;1.40;;;;;;;13.75;53.33;93307.91;5082531;28;20469;-73
2022/04/08 01:21:07;;;;;;;1.70;1.60;;;;;;;13.77;52.72;93284.78;5065176;28;20409;-74
2022/04/08 01:23:34;;;;;;;1.90;1.80;;;;;;;13.58;54.27;93314.06;5063585;28;20284;-74
2022/04/08 01:26:06;;;;;;;4.37;2.10;;;;;;;13.39;53.84;93326.72;5063487;28;20425;-74
2022/04/08 01:28:32;;;;;;;1.83;1.73;;;;;;;13.91;52.78;93317.56;5044599;28;20457;-74
2022/04/08 01:30:58;;;;;;;4.40;1.70;;;;;;;13.54;53.83;93317.41;5044956;28;20469;-74
2022/04/08 01:33:23;;;;;;;1.90;1.80;;;;;;;13.64;53.19;93323.59;5044835;28;20406;-74
2022/04/08 01:35:49;;;;;;;2.03;1.50;;;;;;;13.34;53.88;93331.91;5060609;28;20425;-74
2022/04/08 01:38:15;;;;;;;1.43;1.33;;;;;;;13.56;53.77;93321.38;5057668;28;20190;-74
2022/04/08 01:40:40;;;;;;;2.10;2.00;;;;;;;13.18;54.40;93301.19;5045850;28;20646;-74
2022/04/08 01:43:05;;;;;;;1.73;1.63;;;;;;;13.47;54.31;93322.84;5045536;28;20183;-74
2022/04/08 01:45:31;;;;;;;1.60;1.50;;;;;;;13.37;53.08;93302.50;5077888;28;20190;-74
2022/04/08 01:47:56;;;;;;;1.70;1.60;;;;;;;13.65;52.88;93309.38;5058539;28;20210;-76
2022/04/08 01:50:22;;;;;;;2.13;1.93;;;;;;;13.62;53.44;93317.78;5044813;28;20188;-74
2022/04/08 01:52:48;;;;;;;1.97;1.87;;;;;;;13.81;53.18;93326.13;5044893;28;20175;-74
2022/04/08 01:55:14;;;;;;;2.77;1.40;;;;;;;13.10;54.63;93312.91;5090429;28;20184;-74
2022/04/08 01:57:43;;;;;;;1.70;1.60;;;;;;;13.60;53.69;93327.75;5064314;28;20509;-74
2022/04/08 02:00:09;;;;;;;1.40;1.30;;;;;;;13.55;53.09;93313.75;5064417;28;20167;-74
2022/04/08 02:02:35;;;;;;;2.50;1.80;;;;;;;13.85;51.70;93315.91;5063176;28;20417;-74
2022/04/08 02:05:01;;;;;;;3.00;1.77;;;;;;;13.78;51.27;93323.19;5046514;28;20448;-74
2022/04/08 02:07:27;;;;;;;1.70;1.60;;;;;;;13.62;51.83;93311.69;5063295;28;20958;-74
2022/04/08 02:09:53;;;;;;;2.30;1.67;;;;;;;13.88;51.93;93318.03;5064513;28;20236;-75
2022/04/08 02:12:18;;;;;;;1.83;1.63;;;;;;;13.75;51.10;93323.69;5063323;28;20226;-74
2022/04/08 02:14:44;;;;;;;1.97;1.87;;;;;;;13.78;51.92;93316.09;5072965;28;20431;-74
2022/04/08 02:17:09;;;;;;;2.43;1.40;;;;;;;13.79;51.50;93322.16;5078745;28;20429;-74
2022/04/08 02:19:35;;;;;;;2.23;1.70;;;;;;;14.05;51.79;93331.09;5068324;28;20202;-74
2022/04/08 02:22:02;;;;;;;1.73;1.50;;;;;;;13.74;51.96;93338.66;5068579;28;20227;-74
2022/04/08 02:24:27;;;;;;;1.63;1.53;;;;;;;13.91;51.67;93337.81;5068989;28;20182;-74
2022/04/08 02:26:53;;;;;;;1.47;1.40;;;;;;;13.67;50.67;93343.31;5068299;28;20468;-74
2022/04/08 02:29:19;;;;;;;1.90;1.80;;;;;;;13.89;51.06;93345.13;5068492;28;20179;-74
2022/04/08 02:31:44;;;;;;;1.53;1.43;;;;;;;13.54;50.76;93348.94;5068357;28;20202;-74
2022/04/08 02:34:10;;;;;;;1.67;1.57;;;;;;;14.00;50.67;93363.41;5066606;28;20228;-74
2022/04/08 02:36:35;;;;;;;1.80;1.37;;;;;;;13.72;51.48;93384.66;5048546;28;20171;-74
2022/04/08 02:39:00;;;;;;;1.90;1.70;;;;;;;13.72;51.32;93388.06;5048346;28;20241;-74
2022/04/08 02:41:26;;;;;;;1.10;1.10;;;;;;;13.61;52.66;93375.84;5047854;28;20167;-74
2022/04/08 02:43:51;;;;;;;1.60;1.50;;;;;;;13.85;50.95;93377.19;5047539;28;20179;-74
2022/04/08 02:46:17;;;;;;;1.63;1.53;;;;;;;13.84;51.17;93385.31;5054289;28;20776;-74
2022/04/08 02:48:42;;;;;;;1.60;1.50;;;;;;;13.25;51.37;93377.97;5066534;28;20179;-74
2022/04/08 02:51:08;;;;;;;1.63;1.53;;;;;;;14.01;49.56;93385.25;5065937;28;20232;-74
2022/04/08 02:53:33;;;;;;;1.73;1.50;;;;;;;13.82;50.86;93388.19;5066844;28;20178;-74
2022/04/08 02:55:59;;;;;;;1.93;1.00;;;;;;;13.35;50.92;93378.13;5067624;28;20183;-74
2022/04/08 02:58:26;;;;;;;1.90;1.73;;;;;;;13.97;49.61;93392.03;5066058;28;20210;-74
2022/04/08 03:00:52;;;;;;;1.50;1.40;;;;;;;14.29;48.84;93381.59;5066067;28;20167;-74
2022/04/08 03:03:17;;;;;;;6.33;1.33;;;;;;;14.03;49.59;93396.31;5067271;28;20416;-75
2022/04/08 03:05:43;;;;;;;2.23;1.53;;;;;;;13.82;50.27;93408.44;5067338;28;20720;-74
2022/04/08 03:08:08;;;;;;;2.40;1.60;;;;;;;13.89;50.02;93397.72;5067416;28;20253;-74
2022/04/08 03:10:33;;;;;;;1.40;1.30;;;;;;;13.84;49.92;93407.13;5067123;28;20205;-74
2022/04/08 03:12:59;;;;;;;1.63;1.30;;;;;;;14.08;49.78;93417.41;5066567;28;20175;-74
2022/04/08 03:15:24;;;;;;;1.73;1.63;;;;;;;14.07;49.55;93400.03;5067027;28;20182;-74
2022/04/08 03:17:51;;;;;;;1.50;1.40;;;;;;;13.60;50.22;93400.53;5066888;28;20229;-74
2022/04/08 03:20:17;;;;;;;1.40;1.30;;;;;;;13.43;50.68;93405.81;5065427;28;20201;-74
2022/04/08 03:22:43;;;;;;;1.50;1.20;;;;;;;13.70;50.05;93400.66;5054166;28;20418;-74
2022/04/08 03:25:09;;;;;;;1.30;1.30;;;;;;;13.93;49.23;93414.63;5046234;28;20430;-74
2022/04/08 03:27:34;;;;;;;1.57;1.47;;;;;;;13.69;48.67;93422.72;5046779;28;20223;-74
2022/04/08 03:30:00;;;;;;;1.23;1.13;;;;;;;13.54;49.21;93427.78;5046998;28;20430;-76
2022/04/08 03:32:25;;;;;;;2.43;1.33;;;;;;;13.94;48.42;93431.97;5052646;28;20202;-74
2022/04/08 03:34:57;;;;;;;1.00;1.00;;;;;;;13.54;48.51;93433.03;5059608;28;20197;-74
2022/04/08 03:37:26;;;;;;;1.33;1.30;;;;;;;13.67;48.31;93457.13;5046726;28;20231;-75
2022/04/08 03:39:53;;;;;;;1.10;1.10;;;;;;;13.70;48.75;93455.88;5045307;28;20481;-73
2022/04/08 03:42:18;;;;;;;0.77;0.77;;;;;;;13.39;49.68;93467.78;5053323;28;20559;-74
2022/04/08 03:44:44;;;;;;;1.77;1.00;;;;;;;13.70;48.86;93471.66;5066634;28;20425;-75
2022/04/08 03:47:09;;;;;;;0.90;0.90;;;;;;;13.64;48.84;93470.00;5066314;28;20226;-74
2022/04/08 03:49:36;;;;;;;2.80;0.83;;;;;;;13.40;49.89;93469.38;5066614;28;20189;-75
2022/04/08 03:52:05;;;;;;;1.03;0.97;;;;;;;13.57;48.92;93464.13;5065559;28;20263;-74
2022/04/08 03:54:30;;;;;;;1.17;0.90;;;;;;;13.41;49.30;93479.66;5058669;28;20437;-74
2022/04/08 03:56:56;;;;;;;1.17;0.90;;;;;;;13.66;48.56;93473.19;5046135;28;20785;-75
2022/04/08 03:59:22;;;;;;;2.40;1.00;;;;;;;13.68;48.06;93476.34;5046315;28;20184;-74
2022/04/08 04:01:49;;;;;;;2.90;0.67;;;;;;;13.64;48.06;93485.78;5046401;28;20172;-74
2022/04/08 04:04:15;;;;;;;1.27;1.20;;;;;;;13.54;48.56;93485.63;5064525;28;20512;-74
2022/04/08 04:06:40;;;;;;;1.17;0.93;;;;;;;13.89;47.52;93482.69;5064531;28;20424;-75
2022/04/08 04:09:06;;;;;;;1.43;1.33;;;;;;;13.72;48.64;93477.47;5065955;28;20425;-75
2022/04/08 04:11:33;;;;;;;1.90;0.97;;;;;;;13.62;47.77;93474.69;5064653;28;20285;-74
2022/04/08 04:13:59;;;;;;;1.67;1.57;;;;;;;13.65;47.25;93490.75;5045878;28;20233;-74
2022/04/08 04:16:25;;;;;;;0.97;0.97;;;;;;;14.07;46.30;93489.47;5047159;28;20557;-75
2022/04/08 04:18:50;;;;;;;0.90;0.90;;;;;;;14.28;45.86;93498.41;5066142;28;20409;-75
2022/04/08 04:21:15;;;;;;;0.90;0.90;;;;;;;13.94;46.61;93505.59;5065752;28;20649;-75
2022/04/08 04:23:41;;;;;;;0.93;0.93;;;;;;;13.78;47.99;93508.03;5048546;28;20222;-74
2022/04/08 04:26:06;;;;;;;1.53;1.37;;;;;;;13.83;46.21;93510.75;5045883;28;20172;-74
2022/04/08 04:28:33;;;;;;;1.30;1.00;;;;;;;13.94;47.10;93521.38;5043953;28;20227;-74
2022/04/08 04:30:59;;;;;;;1.90;1.33;;;;;;;13.91;46.62;93527.16;5045403;28;20254;-75
2022/04/08 04:33:26;;;;;;;1.10;1.00;;;;;;;14.12;46.84;93517.69;5044987;28;20438;-74
2022/04/08 04:35:51;;;;;;;1.50;1.20;;;;;;;13.84;47.04;93503.63;5056423;28;20497;-75
2022/04/08 04:38:16;;;;;;;2.03;1.60;;;;;;;14.35;45.86;93522.69;5045499;28;20425;-75
2022/04/08 04:40:42;;;;;;;1.20;1.10;;;;;;;14.18;46.22;93532.50;5045483;28;20195;-75
2022/04/08 04:43:07;;;;;;;1.93;1.30;;;;;;;14.31;45.93;93528.72;5044313;28;20268;-74
2022/04/08 04:45:34;;;;;;;1.23;1.00;;;;;;;14.56;45.70;93529.00;5046106;28;20198;-74
2022/04/08 04:48:00;;;;;;;1.00;1.00;;;;;;;13.95;46.67;93523.00;5051376;28;20254;-74
2022/04/08 04:50:25;;;;;;;1.10;1.10;;;;;;;14.33;46.21;93526.63;5066066;28;20515;-74
2022/04/08 04:52:51;;;;;;;1.90;1.30;;;;;;;14.50;45.97;93537.88;5048559;28;20202;-75
2022/04/08 04:55:16;;;;;;;1.43;1.30;;;;;;;14.37;45.99;93546.16;5045437;28;20237;-75
2022/04/08 04:57:41;;;;;;;1.70;1.60;;;;;;;14.47;45.39;93534.94;5045602;28;20182;-75
2022/04/08 05:00:09;;;;;;;2.07;1.93;;;;;;;14.52;44.39;93546.31;5045919;28;20171;-75
2022/04/08 05:02:36;;;;;;;2.40;1.87;;;;;;;14.82;43.66;93553.78;5057946;28;20251;-74
2022/04/08 05:05:01;;;;;;;1.30;1.20;;;;;;;14.30;44.98;93545.53;5065594;28;20440;-74
2022/04/08 05:07:27;;;;;;;1.50;1.40;;;;;;;14.65;44.97;93571.53;5065325;28;20409;-74
2022/04/08 05:09:53;;;;;;;1.83;1.27;;;;;;;14.67;43.84;93571.28;5064024;28;20186;-74
2022/04/08 05:12:18;;;;;;;5.03;2.03;;;;;;;14.74;43.20;93574.50;5053727;28;20207;-74
2022/04/08 05:14:44;;;;;;;2.13;1.47;;;;;;;14.89;42.80;93585.22;5045661;28;20180;-75
2022/04/08 05:17:09;;;;;;;2.73;2.00;;;;;;;15.09;42.55;93589.09;5045206;28;20184;-75
2022/04/08 05:19:35;;;;;;;1.50;1.40;;;;;;;14.92;43.30;93594.47;5045132;28;20183;-74
2022/04/08 05:22:00;;;;;;;2.40;2.03;;;;;;;15.21;42.95;93601.09;5045021;28;20199;-74
2022/04/08 05:24:25;;;;;;;1.70;1.60;;;;;;;15.57;41.75;93600.63;5044895;28;20183;-75
2022/04/08 05:26:51;;;;;;;2.00;1.53;;;;;;;15.76;41.40;93609.78;5050857;28;20230;-74
2022/04/08 05:29:16;;;;;;;2.53;1.90;;;;;;;16.09;40.58;93615.81;5064411;28;20262;-74
2022/04/08 05:31:42;;;;;;;8.27;3.40;;;;;;;15.78;41.51;93607.69;5060135;28;20210;-75
2022/04/08 05:34:07;;;;;;;2.93;2.30;;;;;;;15.59;41.79;93599.34;5044559;28;20175;-74
2022/04/08 05:36:32;;;;;;;6.63;3.00;;;;;;;15.74;41.15;93596.03;5064744;28;20194;-74
2022/04/08 05:38:58;;;;;;;1.93;1.63;;;;;;;15.49;42.26;93608.97;5063249;28;20194;-75
2022/04/08 05:41:23;;;;;;;5.63;2.67;;;;;;;15.69;41.64;93606.53;5062970;28;20196;-75
2022/04/08 05:43:49;;;;;;;1.80;1.70;;;;;;;15.57;40.46;93600.63;5064791;28;20175;-74
2022/04/08 05:46:15;;;;;;;4.70;2.30;;;;;;;16.22;40.42;93606.66;5064683;28;20190;-74
2022/04/08 05:48:41;;;;;;;2.97;2.00;;;;;;;16.57;39.87;93613.97;5055140;28;20183;-74
2022/04/08 05:51:07;;;;;;;4.07;3.30;;;;;;;16.28;40.44;93618.06;5048570;28;20539;-74
2022/04/08 05:53:33;;;;;;;5.77;2.93;;;;;;;15.97;40.49;93615.19;5066889;28;20170;-74
2022/04/08 05:56:00;;;;;;;2.60;2.40;;;;;;;16.25;39.38;93623.84;5067164;28;20818;-74
2022/04/08 05:58:26;;;;;;;3.50;2.43;;;;;;;16.24;39.46;93622.22;5068473;28;20192;-74
2022/04/08 06:00:51;;;;;;;2.60;2.27;;;;;;;16.47;39.56;93613.94;5068837;28;20451;-75
2022/04/08 06:03:17;;;;;;;2.80;2.40;;;;;;;16.76;38.07;93605.59;5051706;28;20430;-74
2022/04/08 06:05:42;;;;;;;4.27;3.80;;;;;;;16.87;37.67;93617.84;5048897;28;20179;-75
2022/04/08 06:08:08;;;;;;;2.70;2.50;;;;;;;16.36;38.60;93607.00;5049018;28;20175;-74
2022/04/08 06:10:34;;;;;;;2.00;1.80;;;;;;;16.07;39.14;93610.00;5048688;28;20204;-75
2022/04/08 06:13:01;;;;;;;3.40;2.57;;;;;;;15.87;39.71;93607.22;5048968;28;20245;-75
2022/04/08 06:15:27;;;;;;;3.50;3.07;;;;;;;15.89;40.51;93623.59;5048554;28;20179;-74
2022/04/08 06:17:55;;;;;;;3.80;2.00;;;;;;;16.03;39.23;93619.47;5047066;28;20413;-74
2022/04/08 06:20:21;;;;;;;4.80;3.03;;;;;;;16.45;39.51;93626.59;5082731;28;20485;-74
2022/04/08 06:22:47;;;;;;;3.70;2.73;;;;;;;16.62;38.89;93637.00;5078855;28;20463;-76
2022/04/08 06:25:16;;;;;;;3.43;2.90;;;;;;;16.99;37.67;93636.09;5068399;28;20433;-75
2022/04/08 06:27:44;;;;;;;5.93;2.83;;;;;;;17.29;36.96;93634.63;5054658;28;20530;-74
2022/04/08 06:30:12;;;;;;;9.47;4.27;;;;;;;17.13;36.41;93641.69;5048500;28;21230;-75
2022/04/08 06:32:41;;;;;;;1.97;1.83;;;;;;;16.93;36.83;93642.44;5052787;28;20489;-75
2022/04/08 06:35:07;;;;;;;3.23;1.90;;;;;;;16.66;35.96;93645.19;5068530;28;20503;-75
2022/04/08 06:37:32;;;;;;;3.77;1.97;;;;;;;17.20;36.18;93639.59;5067814;28;20412;-74
2022/04/08 06:40:09;;;;;;;5.20;2.17;;;;;;;16.91;36.51;93616.25;5067827;28;20182;-74
2022/04/08 06:42:35;;;;;;;3.97;2.20;;;;;;;16.84;36.72;93634.19;5062989;28;20959;-74
2022/04/08 06:45:01;;;;;;;3.00;2.67;;;;;;;17.00;37.60;93650.94;5048269;28;20433;-74
2022/04/08 06:47:27;;;;;;;4.77;2.20;;;;;;;16.86;38.13;93653.22;5047933;28;20179;-74
2022/04/08 06:49:52;;;;;;;4.57;2.30;;;;;;;16.99;37.30;93646.69;5066499;28;20557;-74
2022/04/08 06:52:18;;;;;;;4.80;2.57;;;;;;;17.22;36.73;93668.44;5065737;28;20195;-74
2022/04/08 06:54:43;;;;;;;3.00;2.80;;;;;;;17.00;36.67;93669.44;5058586;28;20193;-74
2022/04/08 06:57:09;;;;;;;4.23;2.60;;;;;;;17.37;36.34;93658.69;5047188;28;20172;-75
2022/04/08 06:59:35;;;;;;;3.87;2.73;;;;;;;17.22;36.89;93640.13;5047626;28;20184;-74
2022/04/08 07:02:00;;;;;;;1.83;1.70;;;;;;;16.95;37.51;93664.91;5046325;28;20298;-74
2022/04/08 07:04:26;;;;;;;1.93;1.73;;;;;;;17.45;36.29;93661.88;5066434;28;20441;-74
2022/04/08 07:06:52;;;;;;;1.73;1.63;;;;;;;17.49;35.72;93652.38;5067250;28;20181;-74
2022/04/08 07:09:17;;;;;;;3.80;3.00;;;;;;;17.35;36.68;93644.16;5067385;28;20183;-74
2022/04/08 07:11:43;;;;;;;4.40;2.20;;;;;;;17.51;37.22;93656.34;5067296;28;20459;-74
2022/04/08 07:14:08;;;;;;;3.10;1.80;;;;;;;17.25;36.82;93642.28;5066379;28;20183;-75
2022/04/08 07:16:34;;;;;;;2.00;1.90;;;;;;;17.49;36.31;93668.22;5067441;28;20166;-74
2022/04/08 07:18:59;;;;;;;9.50;2.80;;;;;;;17.52;36.39;93665.88;5066095;28;20503;-74
2022/04/08 07:21:26;;;;;;;2.90;2.60;;;;;;;18.04;36.10;93681.84;5066794;28;20170;-75
2022/04/08 07:23:51;;;;;;;4.83;2.33;;;;;;;18.09;35.94;93669.38;5067310;28;20205;-74
2022/04/08 07:26:20;;;;;;;1.90;1.80;;;;;;;17.81;36.47;93681.25;5065769;28;20405;-74
2022/04/08 07:28:46;;;;;;;2.63;2.43;;;;;;;17.28;37.51;93676.13;5046855;28;20226;-75
2022/04/08 07:31:12;;;;;;;2.43;2.23;;;;;;;17.53;37.61;93683.34;5046977;28;20513;-74
2022/04/08 07:33:38;;;;;;;3.87;1.93;;;;;;;17.79;36.88;93693.97;5046551;28;20489;-75
2022/04/08 07:36:04;;;;;;;5.60;1.97;;;;;;;18.13;36.08;93696.94;5046706;28;20414;-75
2022/04/08 07:38:30;;;;;;;3.60;2.47;;;;;;;18.21;36.46;93698.28;5046775;28;20175;-75
2022/04/08 07:40:57;;;;;;;1.53;1.43;;;;;;;17.89;36.25;93701.97;5046533;28;20413;-75
2022/04/08 07:43:23;;;;;;;2.87;2.67;;;;;;;17.79;37.23;93701.09;5046523;28;20225;-75
2022/04/08 07:45:48;;;;;;;3.03;1.43;;;;;;;17.79;37.00;93701.91;5046711;28;20440;-75
2022/04/08 07:48:14;;;;;;;2.60;2.40;;;;;;;17.71;37.83;93699.78;5046675;28;20194;-74
2022/04/08 07:50:40;;;;;;;3.13;2.37;;;;;;;18.50;36.92;93711.75;5059576;28;20214;-74
2022/04/08 07:53:06;;;;;;;7.33;2.13;;;;;;;18.41;35.94;93723.16;5066444;28;20195;-74
2022/04/08 07:55:32;;;;;;;7.57;3.53;;;;;;;18.24;36.32;93723.44;5066218;28;20416;-75
2022/04/08 07:57:57;;;;;;;7.70;3.10;;;;;;;18.28;36.82;93719.97;5066119;28;20424;-74
2022/04/08 08:00:27;;;;;;;3.63;1.90;;;;;;;18.77;35.61;93729.22;5066424;28;20174;-75
2022/04/08 08:02:53;;;;;;;1.90;1.80;;;;;;;19.09;35.34;93725.47;5064804;28;20175;-74
2022/04/08 08:05:20;;;;;;;2.73;2.20;;;;;;;18.74;35.37;93716.47;5066147;28;20424;-74
2022/04/08 08:07:53;;;;;;;2.97;2.50;;;;;;;19.17;35.53;93721.47;5064638;28;20523;-75
2022/04/08 08:10:21;;;;;;;3.27;1.70;;;;;;;19.46;34.50;93719.75;5065343;28;20428;-74
2022/04/08 08:12:47;;;;;;;1.83;1.30;;;;;;;18.96;35.00;93707.47;5066254;28;20437;-74
2022/04/08 08:15:15;;;;;;;2.17;1.40;;;;;;;19.44;34.00;93729.03;5065867;28;20512;-74
2022/04/08 08:17:40;;;;;;;1.80;1.60;;;;;;;19.56;33.24;93716.25;5065807;28;20413;-74
2022/04/08 08:20:07;;;;;;;1.93;1.83;;;;;;;19.76;33.54;93719.88;5081571;28;20890;-75
2022/04/08 08:22:33;;;;;;;2.80;1.40;;;;;;;19.78;33.66;93725.72;5067331;28;20508;-75
2022/04/08 08:24:59;;;;;;;2.73;2.27;;;;;;;20.13;34.05;93732.69;5064989;28;20467;-75
2022/04/08 08:27:24;;;;;;;2.00;1.83;;;;;;;19.86;33.91;93731.25;5066033;28;20487;-74
2022/04/08 08:29:49;;;;;;;4.90;1.70;;;;;;;19.80;34.32;93728.88;5066164;28;20183;-75
2022/04/08 08:32:15;;;;;;;1.70;1.60;;;;;;;19.53;34.06;93732.72;5051578;28;20203;-75
2022/04/08 08:34:40;;;;;;;3.93;1.50;;;;;;;19.18;34.53;93747.72;5045998;28;20183;-74
2022/04/08 08:37:06;;;;;;;2.00;1.43;;;;;;;19.75;34.20;93745.66;5046098;28;20175;-75
2022/04/08 08:39:32;;;;;;;4.03;1.80;;;;;;;20.33;33.62;93738.91;5045514;28;20186;-74
2022/04/08 08:41:58;;;;;;;2.40;1.63;;;;;;;20.38;32.38;93752.94;5048399;28;20231;-74
2022/04/08 08:44:23;;;;;;;6.50;1.43;;;;;;;19.70;33.95;93735.81;5046194;28;20429;-75
2022/04/08 08:46:49;;;;;;;1.70;1.60;;;;;;;19.82;33.68;93754.09;5045667;28;20227;-74
2022/04/08 08:49:19;;;;;;;1.80;1.70;;;;;;;20.07;33.42;93737.22;5045881;28;20198;-74
2022/04/08 08:51:54;;;;;;;2.40;2.10;;;;;;;20.51;32.18;93754.19;5045839;28;20465;-74
2022/04/08 08:54:19;;;;;;;2.33;2.13;;;;;;;21.23;31.01;93756.19;5051856;28;20784;-75
2022/04/08 08:56:45;;;;;;;3.33;2.27;;;;;;;21.45;31.13;93761.81;5065317;28;20408;-75
2022/04/08 08:59:10;;;;;;;2.03;1.93;;;;;;;21.34;30.95;93752.34;5065977;28;20242;-75
2022/04/08 09:01:36;;;;;;;2.30;1.43;;;;;;;20.56;31.61;93763.97;5063957;28;20248;-74
2022/04/08 09:04:01;;;;;;;3.67;1.87;;;;;;;21.16;31.80;93751.19;5065465;28;20179;-74
2022/04/08 09:06:27;;;;;;;1.80;1.53;;;;;;;21.38;31.33;93765.88;5047422;28;20178;-74
2022/04/08 09:08:57;;;;;;;1.53;1.33;;;;;;;21.19;30.80;93755.16;5063878;28;20272;-74
2022/04/08 09:11:26;;;;;;;2.70;1.80;;;;;;;21.66;30.80;93758.13;5053224;28;20275;-74
2022/04/08 09:13:54;;;;;;;1.50;1.40;;;;;;;22.77;28.81;93759.47;5043749;28;20426;-74
2022/04/08 09:16:27;;;;;;;2.40;2.20;;;;;;;22.48;29.84;93757.81;5044865;28;20984;-74
2022/04/08 09:18:54;;;;;;;2.17;1.57;;;;;;;22.70;29.15;93751.84;5044775;28;20487;-75
2022/04/08 09:21:24;;;;;;;1.53;1.43;;;;;;;22.62;29.28;93749.84;5045156;28;20434;-75
2022/04/08 09:23:50;;;;;;;1.53;1.43;;;;;;;22.37;29.62;93730.50;5045965;28;20468;-74
2022/04/08 09:26:15;;;;;;;2.00;1.40;;;;;;;22.62;28.93;93752.53;5050269;28;20522;-74
2022/04/08 09:28:41;;;;;;;1.47;1.37;;;;;;;22.94;29.36;93742.91;5068695;28;20465;-75
2022/04/08 09:31:17;;;;;;;1.70;1.60;;;;;;;23.02;28.49;93752.91;5061729;28;20187;-75
2022/04/08 09:33:52;;;;;;;1.80;1.70;;;;;;;23.24;28.44;93746.13;5049233;28;20417;-75
2022/04/08 09:36:32;;;;;;;2.10;1.77;;;;;;;23.26;28.37;93743.94;5068603;28;20431;-74
2022/04/08 09:38:58;;;;;;;1.93;1.70;;;;;;;23.45;28.00;93742.00;5067298;28;21098;-75
2022/04/08 09:41:39;;;;;;;1.43;1.30;;;;;;;23.36;28.74;93738.44;5069141;28;20409;-74
2022/04/08 09:44:11;;;;;;;2.00;1.70;;;;;;;23.69;29.04;93730.28;5069284;28;21203;-74
2022/04/08 09:46:36;;;;;;;3.10;2.30;;;;;;;22.32;32.52;93732.47;5068740;28;20401;-74
2022/04/08 09:49:06;;;;;;;3.73;1.70;;;;;;;22.14;33.20;93734.00;5068256;28;20441;-74
2022/04/08 09:51:40;;;;;;;3.73;2.60;;;;;;;22.27;33.06;93730.69;5068802;28;20198;-74
2022/04/08 09:54:20;;;;;;;1.90;1.43;;;;;;;22.03;33.13;93736.06;5068340;28;20464;-74
2022/04/08 09:56:46;;;;;;;2.10;1.90;;;;;;;22.28;33.17;93736.78;5068945;28;20392;-74
2022/04/08 09:59:20;;;;;;;2.10;1.80;;;;;;;21.32;34.71;93743.84;5066532;28;20441;-74
2022/04/08 10:01:47;;;;;;;1.60;1.50;;;;;;;21.17;35.25;93730.69;5048400;28;20932;-74
2022/04/08 10:04:13;;;;;;;2.43;2.23;;;;;;;21.63;34.54;93738.97;5048418;28;20448;-75
2022/04/08 10:06:40;;;;;;;1.87;1.70;;;;;;;21.66;34.06;93720.84;5048676;28;20418;-74
2022/04/08 10:09:09;;;;;;;5.50;2.23;;;;;;;22.02;33.65;93735.28;5048704;28;20261;-74
2022/04/08 10:12:02;;;;;;;2.13;1.93;;;;;;;22.13;34.05;93735.13;5048678;28;20454;-74
2022/04/08 10:14:34;;;;;;;2.57;2.07;;;;;;;22.48;33.13;93738.34;5063637;28;20437;-74
2022/04/08 10:17:00;;;;;;;1.80;1.70;;;;;;;22.12;34.60;93734.34;5048355;28;20429;-74
2022/04/08 10:19:27;;;;;;;3.30;1.77;;;;;;;22.91;32.74;93722.94;5062178;28;20475;-75
2022/04/08 10:21:54;;;;;;;6.47;2.03;;;;;;;23.04;29.95;93716.06;5073120;28;20428;-74
2022/04/08 10:24:31;;;;;;;2.00;1.47;;;;;;;23.82;26.65;93724.16;5088080;28;20427;-74
2022/04/08 10:27:09;;;;;;;5.30;1.67;;;;;;;24.27;25.52;93728.81;5079624;28;20475;-74
2022/04/08 10:29:38;;;;;;;1.90;1.40;;;;;;;23.70;25.99;93718.53;5066333;28;20425;-74
2022/04/08 10:32:12;;;;;;;1.50;1.40;;;;;;;24.57;25.32;93718.47;5068091;28;21014;-75
2022/04/08 10:34:38;;;;;;;3.53;1.40;;;;;;;24.84;27.50;93730.94;5066212;28;20502;-74
2022/04/08 10:37:20;;;;;;;2.43;1.30;;;;;;;24.11;25.52;93715.78;5066553;28;20420;-74
2022/04/08 10:40:03;;;;;;;1.57;1.37;;;;;;;24.61;25.77;93716.78;5068031;28;20202;-75
2022/04/08 10:42:29;;;;;;;1.30;1.20;;;;;;;24.57;25.00;93705.91;5067847;28;20432;-74
2022/04/08 10:44:55;;;;;;;1.90;1.77;;;;;;;25.22;24.63;93714.41;5067744;28;20433;-74
2022/04/08 10:47:23;;;;;;;2.60;1.67;;;;;;;25.44;24.59;93703.66;5062174;28;20440;-74
2022/04/08 10:50:04;;;;;;;5.67;2.23;;;;;;;25.27;24.49;93695.53;5062964;28;20432;-74
2022/04/08 10:52:38;;;;;;;2.43;1.60;;;;;;;25.08;24.64;93690.41;5063022;28;20464;-74
2022/04/08 10:55:06;;;;;;;1.60;1.50;;;;;;;25.06;24.89;93700.63;5055737;28;20437;-74
2022/04/08 10:57:43;;;;;;;3.63;2.60;;;;;;;25.40;24.56;93689.31;5047963;28;20469;-74
2022/04/08 11:00:13;;;;;;;2.63;1.40;;;;;;;25.31;24.48;93696.53;5046499;28;20462;-74
2022/04/08 11:02:40;;;;;;;3.73;1.53;;;;;;;25.48;24.56;93688.53;5047389;28;20406;-75
2022/04/08 11:05:13;;;;;;;5.10;1.73;;;;;;;26.36;23.72;93691.31;5047613;28;20488;-74
2022/04/08 11:07:43;;;;;;;3.90;1.00;;;;;;;25.61;22.72;93684.16;5049528;28;20433;-74
2022/04/08 11:10:17;;;;;;;4.83;1.90;;;;;;;25.53;23.29;93692.94;5067553;28;20443;-74
2022/04/08 11:12:51;;;;;;;2.70;1.10;;;;;;;25.27;23.19;93691.00;5067105;28;20491;-75
2022/04/08 11:15:19;;;;;;;1.30;1.20;;;;;;;24.81;23.39;93683.38;5067592;28;20445;-74
2022/04/08 11:17:46;;;;;;;1.80;1.20;;;;;;;25.11;23.16;93677.19;5059842;28;20422;-74
2022/04/08 11:20:17;;;;;;;4.93;1.70;;;;;;;23.93;24.22;93690.78;5047485;28;20496;-74
2022/04/08 11:22:45;;;;;;;7.07;1.70;;;;;;;25.13;22.91;93693.72;5072617;28;20422;-75
2022/04/08 11:25:28;;;;;;;2.57;1.50;;;;;;;25.77;21.96;93681.78;5087078;28;20424;-74
2022/04/08 11:28:01;;;;;;;2.00;1.63;;;;;;;25.78;22.27;93682.59;5072107;28;20469;-74
2022/04/08 11:30:27;;;;;;;1.50;1.10;;;;;;;24.75;22.36;93685.38;5066970;28;20425;-74
2022/04/08 11:32:53;;;;;;;1.60;0.93;;;;;;;24.18;23.68;93680.59;5066994;28;20409;-75